sensor_id;sensor_type;location;lat;lon;timestamp;pressure;altitude;pressure_sealevel;temperature;humidity
47220;BME280;32961;51.936;4.788;2023-07-29T00:01:57;100668.94;;;18.36;95.35
47220;BME280;32961;51.936;4.788;2023-07-29T00:04:23;100675.69;;;18.33;95.98
47220;BME280;32961;51.936;4.788;2023-07-29T00:06:51;100676.91;;;18.31;95.96
47220;BME280;32961;51.936;4.788;2023-07-29T00:09:19;100680.72;;;18.30;96.46
47220;BME280;32961;51.936;4.788;2023-07-29T00:11:47;100671.81;;;18.27;96.81
47220;BME280;32961;51.936;4.788;2023-07-29T00:14:15;100668.19;;;18.27;96.90
47220;BME280;32961;51.936;4.788;2023-07-29T00:16:44;100661.03;;;18.26;97.35
47220;BME280;32961;51.936;4.788;2023-07-29T00:19:12;100665.03;;;18.23;97.55
47220;BME280;32961;51.936;4.788;2023-07-29T00:21:40;100666.91;;;18.23;97.69
47220;BME280;32961;51.936;4.788;2023-07-29T00:24:10;100663.50;;;18.21;97.89
47220;BME280;32961;51.936;4.788;2023-07-29T00:26:37;100660.31;;;18.17;98.04
47220;BME280;32961;51.936;4.788;2023-07-29T00:29:05;100657.75;;;18.16;98.24
47220;BME280;32961;51.936;4.788;2023-07-29T00:31:33;100659.00;;;18.13;98.46
47220;BME280;32961;51.936;4.788;2023-07-29T00:34:02;100657.97;;;18.14;98.47
47220;BME280;32961;51.936;4.788;2023-07-29T00:36:30;100665.38;;;18.14;98.83
47220;BME280;32961;51.936;4.788;2023-07-29T00:38:58;100662.81;;;18.12;98.48
47220;BME280;32961;51.936;4.788;2023-07-29T00:41:26;100659.44;;;18.10;98.61
47220;BME280;32961;51.936;4.788;2023-07-29T00:43:54;100660.84;;;18.06;98.82
47220;BME280;32961;51.936;4.788;2023-07-29T00:46:22;100655.56;;;18.04;99.43
47220;BME280;32961;51.936;4.788;2023-07-29T00:48:50;100654.91;;;18.02;99.38
47220;BME280;32961;51.936;4.788;2023-07-29T00:51:19;100654.91;;;18.02;99.81
47220;BME280;32961;51.936;4.788;2023-07-29T00:53:47;100655.09;;;18.01;99.95
47220;BME280;32961;51.936;4.788;2023-07-29T00:56:15;100657.84;;;18.01;100.00
47220;BME280;32961;51.936;4.788;2023-07-29T00:58:43;100657.19;;;17.99;100.00
47220;BME280;32961;51.936;4.788;2023-07-29T01:01:11;100647.44;;;17.96;100.00
47220;BME280;32961;51.936;4.788;2023-07-29T01:03:39;100644.69;;;17.96;100.00
47220;BME280;32961;51.936;4.788;2023-07-29T01:06:12;100639.41;;;17.94;100.00
47220;BME280;32961;51.936;4.788;2023-07-29T01:08:52;100634.09;;;17.93;100.00
47220;BME280;32961;51.936;4.788;2023-07-29T01:11:38;100637.66;;;17.93;100.00
47220;BME280;32961;51.936;4.788;2023-07-29T01:14:17;100641.28;;;17.94;100.00
47220;BME280;32961;51.936;4.788;2023-07-29T01:16:53;100636.84;;;17.93;100.00
47220;BME280;32961;51.936;4.788;2023-07-29T01:19:38;100629.56;;;17.85;100.00
47220;BME280;32961;51.936;4.788;2023-07-29T01:22:10;100631.06;;;17.88;100.00
47220;BME280;32961;51.936;4.788;2023-07-29T01:24:40;100640.09;;;17.81;100.00
47220;BME280;32961;51.936;4.788;2023-07-29T01:27:07;100635.22;;;17.77;100.00
47220;BME280;32961;51.936;4.788;2023-07-29T01:29:35;100635.38;;;17.75;100.00
47220;BME280;32961;51.936;4.788;2023-07-29T01:32:07;100636.84;;;17.71;100.00
47220;BME280;32961;51.936;4.788;2023-07-29T01:34:41;100636.59;;;17.66;100.00
47220;BME280;32961;51.936;4.788;2023-07-29T01:37:19;100625.97;;;17.63;100.00
47220;BME280;32961;51.936;4.788;2023-07-29T01:39:54;100628.47;;;17.58;100.00
47220;BME280;32961;51.936;4.788;2023-07-29T01:42:24;100632.09;;;17.58;100.00
47220;BME280;32961;51.936;4.788;2023-07-29T01:44:56;100627.63;;;17.57;100.00
47220;BME280;32961;51.936;4.788;2023-07-29T01:47:24;100618.47;;;17.50;100.00
47220;BME280;32961;51.936;4.788;2023-07-29T01:49:52;100622.06;;;17.51;100.00
47220;BME280;32961;51.936;4.788;2023-07-29T01:52:20;100629.66;;;17.48;100.00
47220;BME280;32961;51.936;4.788;2023-07-29T01:54:48;100618.66;;;17.48;100.00
47220;BME280;32961;51.936;4.788;2023-07-29T01:57:17;100627.53;;;17.51;99.86
47220;BME280;32961;51.936;4.788;2023-07-29T01:59:45;100630.69;;;17.47;99.19
47220;BME280;32961;51.936;4.788;2023-07-29T02:02:13;100622.47;;;17.47;98.95
47220;BME280;32961;51.936;4.788;2023-07-29T02:04:41;100633.81;;;17.44;98.43
47220;BME280;32961;51.936;4.788;2023-07-29T02:07:09;100613.88;;;17.36;98.26
47220;BME280;32961;51.936;4.788;2023-07-29T02:09:36;100613.50;;;17.39;98.34
47220;BME280;32961;51.936;4.788;2023-07-29T02:12:05;100612.63;;;17.38;98.13
47220;BME280;32961;51.936;4.788;2023-07-29T02:14:35;100614.72;;;17.36;98.12
47220;BME280;32961;51.936;4.788;2023-07-29T02:17:03;100612.63;;;17.38;97.81
47220;BME280;32961;51.936;4.788;2023-07-29T02:19:31;100606.69;;;17.35;97.57
47220;BME280;32961;51.936;4.788;2023-07-29T02:21:59;100600.72;;;17.31;97.50
47220;BME280;32961;51.936;4.788;2023-07-29T02:24:27;100602.63;;;17.30;97.43
47220;BME280;32961;51.936;4.788;2023-07-29T02:26:54;100601.13;;;17.28;97.41
47220;BME280;32961;51.936;4.788;2023-07-29T02:29:22;100594.78;;;17.27;97.44
47220;BME280;32961;51.936;4.788;2023-07-29T02:31:52;100606.22;;;17.31;97.00
47220;BME280;32961;51.936;4.788;2023-07-29T02:34:21;100599.03;;;17.30;96.89
47220;BME280;32961;51.936;4.788;2023-07-29T02:36:48;100597.06;;;17.24;96.79
47220;BME280;32961;51.936;4.788;2023-07-29T02:39:16;100596.47;;;17.28;96.72
47220;BME280;32961;51.936;4.788;2023-07-29T02:41:44;100572.28;;;17.17;96.60
47220;BME280;32961;51.936;4.788;2023-07-29T02:44:12;100569.81;;;17.22;96.57
47220;BME280;32961;51.936;4.788;2023-07-29T02:46:40;100571.97;;;17.27;97.04
47220;BME280;32961;51.936;4.788;2023-07-29T02:49:09;100575.38;;;17.29;96.60
47220;BME280;32961;51.936;4.788;2023-07-29T02:51:37;100564.78;;;17.26;96.79
47220;BME280;32961;51.936;4.788;2023-07-29T02:54:05;100564.56;;;17.27;96.58
47220;BME280;32961;51.936;4.788;2023-07-29T02:56:33;100568.19;;;17.28;96.62
47220;BME280;32961;51.936;4.788;2023-07-29T02:59:01;100573.66;;;17.28;96.02
47220;BME280;32961;51.936;4.788;2023-07-29T03:01:29;100575.75;;;17.26;96.46
47220;BME280;32961;51.936;4.788;2023-07-29T03:03:57;100577.66;;;17.25;96.49
47220;BME280;32961;51.936;4.788;2023-07-29T03:06:26;100596.22;;;17.23;96.33
47220;BME280;32961;51.936;4.788;2023-07-29T03:08:54;100587.25;;;17.14;96.53
47220;BME280;32961;51.936;4.788;2023-07-29T03:11:22;100595.09;;;17.17;96.24
47220;BME280;32961;51.936;4.788;2023-07-29T03:13:50;100572.50;;;17.00;96.15
47220;BME280;32961;51.936;4.788;2023-07-29T03:16:18;100587.25;;;17.14;95.94
47220;BME280;32961;51.936;4.788;2023-07-29T03:18:47;100581.31;;;17.11;96.15
47220;BME280;32961;51.936;4.788;2023-07-29T03:21:15;100591.81;;;17.07;96.05
47220;BME280;32961;51.936;4.788;2023-07-29T03:23:44;100579.72;;;17.02;96.06
47220;BME280;32961;51.936;4.788;2023-07-29T03:26:12;100595.59;;;17.06;96.38
47220;BME280;32961;51.936;4.788;2023-07-29T03:28:42;100584.81;;;17.05;96.17
47220;BME280;32961;51.936;4.788;2023-07-29T03:31:11;100573.13;;;16.96;96.22
47220;BME280;32961;51.936;4.788;2023-07-29T03:33:39;100587.75;;;17.03;96.41
47220;BME280;32961;51.936;4.788;2023-07-29T03:36:07;100583.03;;;16.97;96.16
47220;BME280;32961;51.936;4.788;2023-07-29T03:38:35;100588.13;;;17.00;96.35
47220;BME280;32961;51.936;4.788;2023-07-29T03:41:08;100585.41;;;17.00;96.31
47220;BME280;32961;51.936;4.788;2023-07-29T03:43:36;100583.69;;;16.99;96.59
47220;BME280;32961;51.936;4.788;2023-07-29T03:46:04;100574.53;;;16.92;96.38
47220;BME280;32961;51.936;4.788;2023-07-29T03:48:37;100592.50;;;16.94;96.58
47220;BME280;32961;51.936;4.788;2023-07-29T03:51:05;100587.22;;;16.93;96.58
47220;BME280;32961;51.936;4.788;2023-07-29T03:53:33;100600.72;;;16.94;96.86
47220;BME280;32961;51.936;4.788;2023-07-29T03:56:01;100590.78;;;16.93;97.18
47220;BME280;32961;51.936;4.788;2023-07-29T03:58:30;100591.66;;;16.94;97.09
47220;BME280;32961;51.936;4.788;2023-07-29T04:00:58;100596.94;;;16.95;97.11
47220;BME280;32961;51.936;4.788;2023-07-29T04:03:26;100582.94;;;16.90;97.23
47220;BME280;32961;51.936;4.788;2023-07-29T04:05:54;100595.81;;;16.90;97.15
47220;BME280;32961;51.936;4.788;2023-07-29T04:08:22;100597.69;;;16.89;97.14
47220;BME280;32961;51.936;4.788;2023-07-29T04:10:50;100589.19;;;16.84;97.23
47220;BME280;32961;51.936;4.788;2023-07-29T04:13:18;100606.13;;;16.88;97.27
47220;BME280;32961;51.936;4.788;2023-07-29T04:15:47;100594.88;;;16.82;97.56
47220;BME280;32961;51.936;4.788;2023-07-29T04:18:15;100574.81;;;16.67;97.47
47220;BME280;32961;51.936;4.788;2023-07-29T04:20:43;100601.00;;;16.84;97.75
47220;BME280;32961;51.936;4.788;2023-07-29T04:23:11;100594.66;;;16.84;97.65
47220;BME280;32961;51.936;4.788;2023-07-29T04:25:39;100589.38;;;16.82;97.56
47220;BME280;32961;51.936;4.788;2023-07-29T04:28:07;100571.13;;;16.75;97.47
47220;BME280;32961;51.936;4.788;2023-07-29T04:30:34;100587.69;;;16.81;97.84
47220;BME280;32961;51.936;4.788;2023-07-29T04:33:04;100587.22;;;16.78;98.02
47220;BME280;32961;51.936;4.788;2023-07-29T04:35:32;100587.88;;;16.80;98.27
47220;BME280;32961;51.936;4.788;2023-07-29T04:38:00;100603.09;;;16.82;98.26
47220;BME280;32961;51.936;4.788;2023-07-29T04:40:27;100593.06;;;16.75;98.39
47220;BME280;32961;51.936;4.788;2023-07-29T04:42:55;100603.56;;;16.86;98.43
47220;BME280;32961;51.936;4.788;2023-07-29T04:45:27;100601.00;;;16.84;98.45
47220;BME280;32961;51.936;4.788;2023-07-29T04:47:55;100602.69;;;16.85;98.69
47220;BME280;32961;51.936;4.788;2023-07-29T04:50:25;100614.34;;;16.88;98.77
47220;BME280;32961;51.936;4.788;2023-07-29T04:52:52;100617.94;;;16.88;98.98
47220;BME280;32961;51.936;4.788;2023-07-29T04:55:20;100616.91;;;16.89;99.06
47220;BME280;32961;51.936;4.788;2023-07-29T04:57:48;100603.38;;;16.88;99.40
47220;BME280;32961;51.936;4.788;2023-07-29T05:00:17;100608.19;;;16.85;99.61
47220;BME280;32961;51.936;4.788;2023-07-29T05:02:44;100610.94;;;16.85;99.86
47220;BME280;32961;51.936;4.788;2023-07-29T05:05:13;100611.59;;;16.88;99.97
47220;BME280;32961;51.936;4.788;2023-07-29T05:07:42;100613.63;;;16.94;99.87
47220;BME280;32961;51.936;4.788;2023-07-29T05:10:10;100614.66;;;16.93;100.00
47220;BME280;32961;51.936;4.788;2023-07-29T05:12:37;100611.34;;;16.97;100.00
47220;BME280;32961;51.936;4.788;2023-07-29T05:15:07;100597.63;;;16.97;100.00
47220;BME280;32961;51.936;4.788;2023-07-29T05:17:34;100602.69;;;17.00;100.00
47220;BME280;32961;51.936;4.788;2023-07-29T05:20:03;100600.63;;;17.03;100.00
47220;BME280;32961;51.936;4.788;2023-07-29T05:22:31;100595.81;;;17.05;100.00
47220;BME280;32961;51.936;4.788;2023-07-29T05:25:00;100602.78;;;17.07;100.00
47220;BME280;32961;51.936;4.788;2023-07-29T05:27:28;100605.13;;;17.10;100.00
47220;BME280;32961;51.936;4.788;2023-07-29T05:29:56;100599.06;;;17.15;100.00
47220;BME280;32961;51.936;4.788;2023-07-29T05:32:24;100606.72;;;17.20;100.00
47220;BME280;32961;51.936;4.788;2023-07-29T05:34:52;100598.09;;;17.23;100.00
47220;BME280;32961;51.936;4.788;2023-07-29T05:37:20;100604.25;;;17.25;100.00
47220;BME280;32961;51.936;4.788;2023-07-29T05:39:48;100581.34;;;17.17;100.00
47220;BME280;32961;51.936;4.788;2023-07-29T05:42:17;100603.25;;;17.32;100.00
47220;BME280;32961;51.936;4.788;2023-07-29T05:44:45;100598.91;;;17.38;100.00
47220;BME280;32961;51.936;4.788;2023-07-29T05:47:12;100608.84;;;17.39;100.00
47220;BME280;32961;51.936;4.788;2023-07-29T05:49:40;100596.03;;;17.46;100.00
47220;BME280;32961;51.936;4.788;2023-07-29T05:52:09;100590.13;;;17.49;100.00
47220;BME280;32961;51.936;4.788;2023-07-29T05:54:36;100600.53;;;17.54;100.00
47220;BME280;32961;51.936;4.788;2023-07-29T05:57:05;100600.34;;;17.56;100.00
47220;BME280;32961;51.936;4.788;2023-07-29T05:59:34;100607.34;;;17.58;100.00
47220;BME280;32961;51.936;4.788;2023-07-29T06:02:02;100605.66;;;17.57;100.00
47220;BME280;32961;51.936;4.788;2023-07-29T06:04:31;100611.41;;;17.62;100.00
47220;BME280;32961;51.936;4.788;2023-07-29T06:06:59;100612.44;;;17.61;100.00
47220;BME280;32961;51.936;4.788;2023-07-29T06:09:27;100612.50;;;17.68;100.00
47220;BME280;32961;51.936;4.788;2023-07-29T06:11:55;100617.97;;;17.68;100.00
47220;BME280;32961;51.936;4.788;2023-07-29T06:14:23;100619.09;;;17.74;100.00
47220;BME280;32961;51.936;4.788;2023-07-29T06:16:52;100618.06;;;17.75;100.00
47220;BME280;32961;51.936;4.788;2023-07-29T06:19:20;100615.09;;;17.76;99.92
47220;BME280;32961;51.936;4.788;2023-07-29T06:21:48;100603.91;;;17.78;99.89
47220;BME280;32961;51.936;4.788;2023-07-29T06:24:16;100610.28;;;17.78;99.91
47220;BME280;32961;51.936;4.788;2023-07-29T06:26:44;100612.59;;;17.81;99.94
47220;BME280;32961;51.936;4.788;2023-07-29T06:29:12;100618.09;;;17.81;99.96
47220;BME280;32961;51.936;4.788;2023-07-29T06:31:39;100619.63;;;17.84;99.79
47220;BME280;32961;51.936;4.788;2023-07-29T06:34:09;100614.38;;;17.89;99.88
47220;BME280;32961;51.936;4.788;2023-07-29T06:36:36;100614.66;;;17.94;100.00
47220;BME280;32961;51.936;4.788;2023-07-29T06:39:05;100613.50;;;18.04;100.00
47220;BME280;32961;51.936;4.788;2023-07-29T06:41:33;100618.38;;;18.08;100.00
47220;BME280;32961;51.936;4.788;2023-07-29T06:44:00;100608.88;;;18.11;100.00
47220;BME280;32961;51.936;4.788;2023-07-29T06:46:28;100618.31;;;18.30;100.00
47220;BME280;32961;51.936;4.788;2023-07-29T06:48:56;100612.66;;;18.38;99.71
47220;BME280;32961;51.936;4.788;2023-07-29T06:51:25;100619.06;;;18.46;99.42
47220;BME280;32961;51.936;4.788;2023-07-29T06:53:53;100621.63;;;18.54;98.83
47220;BME280;32961;51.936;4.788;2023-07-29T06:56:21;100629.69;;;18.55;98.02
47220;BME280;32961;51.936;4.788;2023-07-29T06:58:49;100619.97;;;18.53;97.45
47220;BME280;32961;51.936;4.788;2023-07-29T07:01:16;100611.28;;;18.56;97.55
47220;BME280;32961;51.936;4.788;2023-07-29T07:03:44;100622.72;;;18.59;97.34
47220;BME280;32961;51.936;4.788;2023-07-29T07:06:12;100618.56;;;18.70;97.89
47220;BME280;32961;51.936;4.788;2023-07-29T07:08:41;100622.88;;;18.86;96.98
47220;BME280;32961;51.936;4.788;2023-07-29T07:11:10;100622.53;;;18.96;96.89
47220;BME280;32961;51.936;4.788;2023-07-29T07:13:38;100619.81;;;19.10;96.53
47220;BME280;32961;51.936;4.788;2023-07-29T07:16:06;100616.50;;;19.28;96.61
47220;BME280;32961;51.936;4.788;2023-07-29T07:18:34;100618.84;;;19.51;95.73
47220;BME280;32961;51.936;4.788;2023-07-29T07:21:04;100618.69;;;19.66;94.31
47220;BME280;32961;51.936;4.788;2023-07-29T07:23:31;100620.19;;;19.82;93.24
47220;BME280;32961;51.936;4.788;2023-07-29T07:26:01;100616.59;;;20.01;92.91
47220;BME280;32961;51.936;4.788;2023-07-29T07:28:29;100622.31;;;20.07;90.98
47220;BME280;32961;51.936;4.788;2023-07-29T07:30:57;100623.81;;;20.09;90.21
47220;BME280;32961;51.936;4.788;2023-07-29T07:33:25;100631.00;;;20.03;88.58
47220;BME280;32961;51.936;4.788;2023-07-29T07:35:53;100628.50;;;19.95;89.28
47220;BME280;32961;51.936;4.788;2023-07-29T07:38:21;100634.00;;;20.09;89.39
47220;BME280;32961;51.936;4.788;2023-07-29T07:40:52;100631.03;;;20.10;88.69
47220;BME280;32961;51.936;4.788;2023-07-29T07:43:23;100636.53;;;20.03;87.80
47220;BME280;32961;51.936;4.788;2023-07-29T07:45:51;100632.09;;;20.02;87.43
47220;BME280;32961;51.936;4.788;2023-07-29T07:48:19;100634.44;;;19.99;87.32
47220;BME280;32961;51.936;4.788;2023-07-29T07:50:47;100633.16;;;20.15;87.42
47220;BME280;32961;51.936;4.788;2023-07-29T07:53:14;100643.94;;;20.30;87.24
47220;BME280;32961;51.936;4.788;2023-07-29T07:55:42;100652.22;;;20.36;86.32
47220;BME280;32961;51.936;4.788;2023-07-29T07:58:10;100640.78;;;20.26;85.31
47220;BME280;32961;51.936;4.788;2023-07-29T08:00:39;100640.13;;;20.24;85.60
47220;BME280;32961;51.936;4.788;2023-07-29T08:03:07;100650.97;;;20.26;85.68
47220;BME280;32961;51.936;4.788;2023-07-29T08:05:35;100648.41;;;20.31;85.59
47220;BME280;32961;51.936;4.788;2023-07-29T08:08:03;100653.50;;;20.27;84.52
47220;BME280;32961;51.936;4.788;2023-07-29T08:10:31;100659.03;;;20.27;85.18
47220;BME280;32961;51.936;4.788;2023-07-29T08:12:59;100659.22;;;20.32;85.49
47220;BME280;32961;51.936;4.788;2023-07-29T08:15:27;100648.81;;;20.41;85.36
47220;BME280;32961;51.936;4.788;2023-07-29T08:17:58;100661.09;;;20.65;84.98
47220;BME280;32961;51.936;4.788;2023-07-29T08:20:26;100658.47;;;20.97;84.06
47220;BME280;32961;51.936;4.788;2023-07-29T08:22:54;100656.72;;;21.10;82.09
47220;BME280;32961;51.936;4.788;2023-07-29T08:25:21;100659.66;;;21.15;81.46
47220;BME280;32961;51.936;4.788;2023-07-29T08:27:49;100663.47;;;21.21;81.15
47220;BME280;32961;51.936;4.788;2023-07-29T08:30:20;100650.50;;;21.21;80.16
47220;BME280;32961;51.936;4.788;2023-07-29T08:32:47;100659.78;;;21.33;80.32
47220;BME280;32961;51.936;4.788;2023-07-29T08:35:17;100653.19;;;21.41;78.47
47220;BME280;32961;51.936;4.788;2023-07-29T08:37:44;100652.94;;;21.43;78.71
47220;BME280;32961;51.936;4.788;2023-07-29T08:40:13;100654.41;;;21.45;78.69
47220;BME280;32961;51.936;4.788;2023-07-29T08:42:44;100657.38;;;21.57;78.64
47220;BME280;32961;51.936;4.788;2023-07-29T08:45:13;100654.94;;;21.68;78.64
47220;BME280;32961;51.936;4.788;2023-07-29T08:47:42;100664.06;;;21.75;75.42
47220;BME280;32961;51.936;4.788;2023-07-29T08:50:13;100623.72;;;21.60;76.23
47220;BME280;32961;51.936;4.788;2023-07-29T08:52:43;100659.88;;;21.91;75.17
47220;BME280;32961;51.936;4.788;2023-07-29T08:55:12;100661.25;;;22.07;75.34
47220;BME280;32961;51.936;4.788;2023-07-29T08:57:40;100654.31;;;22.23;74.98
47220;BME280;32961;51.936;4.788;2023-07-29T09:00:09;100654.75;;;22.45;74.85
47220;BME280;32961;51.936;4.788;2023-07-29T09:02:37;100660.50;;;22.69;74.02
47220;BME280;32961;51.936;4.788;2023-07-29T09:05:06;100656.50;;;22.83;71.91
47220;BME280;32961;51.936;4.788;2023-07-29T09:07:35;100653.75;;;22.83;70.43
47220;BME280;32961;51.936;4.788;2023-07-29T09:10:08;100652.78;;;22.71;69.93
47220;BME280;32961;51.936;4.788;2023-07-29T09:12:37;100657.00;;;22.55;69.24
47220;BME280;32961;51.936;4.788;2023-07-29T09:15:05;100659.47;;;22.44;70.73
47220;BME280;32961;51.936;4.788;2023-07-29T09:17:33;100664.38;;;22.42;71.81
47220;BME280;32961;51.936;4.788;2023-07-29T09:20:01;100665.00;;;22.44;72.50
47220;BME280;32961;51.936;4.788;2023-07-29T09:22:31;100659.91;;;22.41;72.22
47220;BME280;32961;51.936;4.788;2023-07-29T09:24:59;100672.97;;;22.34;71.30
47220;BME280;32961;51.936;4.788;2023-07-29T09:27:29;100665.84;;;22.20;71.39
47220;BME280;32961;51.936;4.788;2023-07-29T09:29:58;100665.47;;;22.09;71.90
47220;BME280;32961;51.936;4.788;2023-07-29T09:32:29;100667.28;;;21.97;72.17
47220;BME280;32961;51.936;4.788;2023-07-29T09:34:57;100658.44;;;21.88;73.17
47220;BME280;32961;51.936;4.788;2023-07-29T09:37:25;100647.44;;;21.82;73.30
47220;BME280;32961;51.936;4.788;2023-07-29T09:39:53;100662.66;;;21.91;73.80
47220;BME280;32961;51.936;4.788;2023-07-29T09:42:22;100665.59;;;21.96;73.64
47220;BME280;32961;51.936;4.788;2023-07-29T09:44:51;100658.78;;;21.99;73.72
47220;BME280;32961;51.936;4.788;2023-07-29T09:47:21;100664.75;;;21.95;73.76
47220;BME280;32961;51.936;4.788;2023-07-29T09:49:49;100658.00;;;21.91;73.35
47220;BME280;32961;51.936;4.788;2023-07-29T09:52:17;100664.84;;;21.82;73.53
47220;BME280;32961;51.936;4.788;2023-07-29T09:54:46;100664.44;;;21.78;73.06
47220;BME280;32961;51.936;4.788;2023-07-29T09:57:15;100672.84;;;21.65;73.13
47220;BME280;32961;51.936;4.788;2023-07-29T09:59:54;100673.28;;;21.55;75.71
47220;BME280;32961;51.936;4.788;2023-07-29T10:02:23;100688.06;;;21.36;78.86
47220;BME280;32961;51.936;4.788;2023-07-29T10:04:55;100686.69;;;21.13;81.13
47220;BME280;32961;51.936;4.788;2023-07-29T10:07:27;100683.69;;;21.08;82.22
47220;BME280;32961;51.936;4.788;2023-07-29T10:09:55;100685.22;;;21.04;83.57
47220;BME280;32961;51.936;4.788;2023-07-29T10:12:24;100677.16;;;20.95;84.27
47220;BME280;32961;51.936;4.788;2023-07-29T10:14:53;100677.81;;;20.97;84.24
47220;BME280;32961;51.936;4.788;2023-07-29T10:17:23;100674.81;;;20.99;84.05
47220;BME280;32961;51.936;4.788;2023-07-29T10:19:52;100671.00;;;21.00;83.97
47220;BME280;32961;51.936;4.788;2023-07-29T10:22:20;100679.94;;;20.95;83.29
47220;BME280;32961;51.936;4.788;2023-07-29T10:24:50;100678.88;;;20.96;83.59
47220;BME280;32961;51.936;4.788;2023-07-29T10:27:19;100679.50;;;20.98;84.03
47220;BME280;32961;51.936;4.788;2023-07-29T10:29:47;100686.50;;;21.01;84.09
47220;BME280;32961;51.936;4.788;2023-07-29T10:32:16;100676.28;;;21.02;84.07
47220;BME280;32961;51.936;4.788;2023-07-29T10:34:46;100680.78;;;20.96;84.23
47220;BME280;32961;51.936;4.788;2023-07-29T10:37:14;100677.19;;;20.82;83.87
47220;BME280;32961;51.936;4.788;2023-07-29T10:39:52;100680.59;;;20.71;84.98
47220;BME280;32961;51.936;4.788;2023-07-29T10:42:20;100677.88;;;20.57;86.42
47220;BME280;32961;51.936;4.788;2023-07-29T10:44:51;100675.97;;;20.58;86.35
47220;BME280;32961;51.936;4.788;2023-07-29T10:47:21;100685.50;;;20.62;86.64
47220;BME280;32961;51.936;4.788;2023-07-29T10:49:52;100683.16;;;20.65;86.76
47220;BME280;32961;51.936;4.788;2023-07-29T10:52:37;100688.69;;;20.65;87.69
47220;BME280;32961;51.936;4.788;2023-07-29T10:55:24;100684.00;;;20.66;87.66
47220;BME280;32961;51.936;4.788;2023-07-29T10:58:04;100689.53;;;20.66;88.15
47220;BME280;32961;51.936;4.788;2023-07-29T11:00:33;100687.00;;;20.64;88.18
47220;BME280;32961;51.936;4.788;2023-07-29T11:03:02;100684.44;;;20.63;88.70
47220;BME280;32961;51.936;4.788;2023-07-29T11:05:46;100681.91;;;20.55;89.36
47220;BME280;32961;51.936;4.788;2023-07-29T11:08:17;100684.66;;;20.55;90.79
47220;BME280;32961;51.936;4.788;2023-07-29T11:10:58;100687.44;;;20.61;90.90
47220;BME280;32961;51.936;4.788;2023-07-29T11:13:26;100686.16;;;20.57;91.38
47220;BME280;32961;51.936;4.788;2023-07-29T11:15:56;100685.94;;;20.52;91.16
47220;BME280;32961;51.936;4.788;2023-07-29T11:18:27;100683.59;;;20.49;91.32
47220;BME280;32961;51.936;4.788;2023-07-29T11:20:57;100677.25;;;20.55;91.63
47220;BME280;32961;51.936;4.788;2023-07-29T11:23:30;100677.00;;;20.70;93.43
47220;BME280;32961;51.936;4.788;2023-07-29T11:25:58;100671.69;;;20.89;94.24
47220;BME280;32961;51.936;4.788;2023-07-29T11:28:27;100677.75;;;21.11;93.08
47220;BME280;32961;51.936;4.788;2023-07-29T11:30:55;100677.63;;;21.38;93.58
47220;BME280;32961;51.936;4.788;2023-07-29T11:33:25;100674.41;;;21.47;90.81
47220;BME280;32961;51.936;4.788;2023-07-29T11:35:56;100662.06;;;21.50;90.98
47220;BME280;32961;51.936;4.788;2023-07-29T11:38:24;100655.47;;;21.51;90.33
47220;BME280;32961;51.936;4.788;2023-07-29T11:40:55;100654.81;;;21.56;88.23
47220;BME280;32961;51.936;4.788;2023-07-29T11:43:23;100672.28;;;21.50;86.80
47220;BME280;32961;51.936;4.788;2023-07-29T11:45:51;100677.81;;;21.43;87.71
47220;BME280;32961;51.936;4.788;2023-07-29T11:48:26;100670.16;;;21.45;88.77
47220;BME280;32961;51.936;4.788;2023-07-29T11:50:54;100676.28;;;21.47;87.95
47220;BME280;32961;51.936;4.788;2023-07-29T11:53:26;100684.59;;;21.47;87.40
47220;BME280;32961;51.936;4.788;2023-07-29T11:55:55;100679.69;;;21.49;88.00
47220;BME280;32961;51.936;4.788;2023-07-29T11:58:23;100676.50;;;21.52;87.92
47220;BME280;32961;51.936;4.788;2023-07-29T12:00:51;100674.34;;;21.54;87.39
47220;BME280;32961;51.936;4.788;2023-07-29T12:03:19;100684.34;;;21.55;87.04
47220;BME280;32961;51.936;4.788;2023-07-29T12:05:48;100673.09;;;21.50;87.29
47220;BME280;32961;51.936;4.788;2023-07-29T12:08:16;100681.38;;;21.57;86.80
47220;BME280;32961;51.936;4.788;2023-07-29T12:10:46;100668.88;;;21.47;85.32
47220;BME280;32961;51.936;4.788;2023-07-29T12:13:14;100672.25;;;21.56;86.32
47220;BME280;32961;51.936;4.788;2023-07-29T12:15:42;100661.78;;;21.65;85.79
47220;BME280;32961;51.936;4.788;2023-07-29T12:18:12;100670.03;;;21.72;84.39
47220;BME280;32961;51.936;4.788;2023-07-29T12:20:40;100669.47;;;21.95;82.74
47220;BME280;32961;51.936;4.788;2023-07-29T12:23:07;100657.69;;;22.00;81.76
47220;BME280;32961;51.936;4.788;2023-07-29T12:25:35;100661.09;;;22.27;82.51
47220;BME280;32961;51.936;4.788;2023-07-29T12:28:05;100664.47;;;22.54;80.26
47220;BME280;32961;51.936;4.788;2023-07-29T12:30:34;100656.97;;;22.80;77.73
47220;BME280;32961;51.936;4.788;2023-07-29T12:33:08;100664.88;;;22.95;78.29
47220;BME280;32961;51.936;4.788;2023-07-29T12:35:36;100662.81;;;23.09;77.45
47220;BME280;32961;51.936;4.788;2023-07-29T12:38:05;100662.97;;;23.14;75.27
47220;BME280;32961;51.936;4.788;2023-07-29T12:40:38;100665.44;;;23.22;76.32
47220;BME280;32961;51.936;4.788;2023-07-29T12:43:07;100669.34;;;23.33;74.98
47220;BME280;32961;51.936;4.788;2023-07-29T12:45:36;100664.66;;;23.34;72.30
47220;BME280;32961;51.936;4.788;2023-07-29T12:48:06;100668.56;;;23.45;73.10
47220;BME280;32961;51.936;4.788;2023-07-29T12:50:34;100664.59;;;23.52;71.77
47220;BME280;32961;51.936;4.788;2023-07-29T12:53:02;100661.13;;;23.57;72.28
47220;BME280;32961;51.936;4.788;2023-07-29T12:55:30;100667.38;;;23.52;70.21
47220;BME280;32961;51.936;4.788;2023-07-29T12:57:58;100671.47;;;23.50;70.92